createdAt,value
2018-03-29T15:20:35.861Z,101.25
2018-03-29T15:21:35.896Z,101.25
2018-03-29T15:22:35.957Z,123.75
2018-03-29T15:24:33.685Z,123.75
2018-03-29T15:32:18.469Z,73.13
2018-03-29T15:49:06.670Z,2542.50
2018-03-29T15:50:06.414Z,1636.88
2018-03-29T15:52:06.520Z,1501.88
2018-03-29T15:53:06.565Z,270.00
2018-03-29T15:54:06.600Z,1479.38
2018-03-29T15:55:06.844Z,1816.88
2018-03-29T15:56:06.733Z,1648.13
2018-03-29T15:57:06.749Z,1451.25
2018-03-29T15:58:06.835Z,1681.88
2018-03-29T15:59:06.849Z,1428.75
2018-03-29T16:00:07.008Z,1771.88
2018-03-29T16:01:06.976Z,1552.50
2018-03-29T16:02:07.024Z,1591.88
2018-03-29T16:03:07.088Z,1265.63
2018-03-29T16:04:07.155Z,1153.13
2018-03-29T16:05:07.193Z,1102.50
2018-03-29T16:06:07.366Z,838.13
2018-03-29T16:07:07.390Z,725.63
2018-03-29T16:08:07.375Z,714.38
2018-03-29T16:09:07.460Z,714.38
2018-03-29T16:10:07.488Z,725.63
2018-03-29T16:11:07.545Z,1164.38
2018-03-29T16:12:07.730Z,1147.50
2018-03-29T16:13:07.665Z,1023.75
2018-03-29T16:14:07.742Z,1226.25
2018-03-29T16:15:07.782Z,1445.63
2018-03-29T16:16:07.853Z,1265.63
2018-03-29T16:17:07.910Z,1271.25
2018-03-29T16:19:08.023Z,1411.88
2018-03-29T16:20:08.098Z,1271.25
2018-03-29T16:21:08.155Z,1417.50
2018-03-29T16:22:08.186Z,1575.00
2018-03-29T16:24:08.324Z,1316.25
2018-03-29T16:25:08.383Z,1231.88
2018-03-29T16:26:08.423Z,1141.88
2018-03-29T16:27:08.483Z,1175.63
2018-03-29T16:28:08.647Z,1051.88
2018-03-29T16:29:08.611Z,990.00
2018-03-29T16:30:08.669Z,1012.50
2018-03-29T16:31:08.755Z,1068.75
2018-03-29T16:32:08.801Z,1141.88
2018-03-29T16:33:08.970Z,1080.00
2018-03-29T16:35:08.990Z,1220.63
2018-03-29T16:36:09.055Z,1237.50
2018-03-29T16:37:09.072Z,1175.63
2018-03-29T16:38:09.136Z,956.25
2018-03-29T16:39:09.345Z,905.63
2018-03-29T16:40:09.254Z,900.00
2018-03-29T16:41:09.318Z,815.63
2018-03-29T16:42:09.365Z,832.50
2018-03-29T16:43:09.444Z,916.88
2018-03-29T16:44:09.518Z,956.25
2018-03-29T16:45:09.566Z,1102.50
2018-03-29T16:46:09.726Z,1040.63
2018-03-29T16:47:09.686Z,1704.38
2018-03-29T16:48:09.754Z,1659.38
2018-03-29T16:49:09.825Z,1305.00
2018-03-29T16:50:09.849Z,1158.75
2018-03-29T16:51:10.005Z,1288.13
2018-03-29T16:52:09.967Z,1305.00
2018-03-29T16:53:10.019Z,1260.00
2018-03-29T16:54:10.111Z,1096.88
2018-03-29T16:55:10.165Z,1130.63
2018-03-29T16:56:10.206Z,1158.75
2018-03-29T16:57:10.352Z,1051.88
2018-03-29T16:58:10.327Z,1029.38
2018-03-29T16:59:10.379Z,1226.25
2018-03-29T17:00:10.455Z,1310.63
2018-03-29T17:01:10.517Z,1220.63
2018-03-29T17:02:10.572Z,1158.75
2018-03-29T17:03:10.743Z,1051.88
2018-03-29T17:04:10.796Z,1040.63
2018-03-29T17:05:10.751Z,990.00
2018-03-29T17:06:10.804Z,961.88
2018-03-29T17:07:10.874Z,905.63
2018-03-29T17:08:10.951Z,849.38
2018-03-29T17:09:11.009Z,838.13
2018-03-29T17:10:11.142Z,804.38
2018-03-29T17:11:11.124Z,781.88
2018-03-29T17:12:11.176Z,759.38
2018-03-29T17:13:11.250Z,691.88
2018-03-29T17:14:11.282Z,663.75
2018-03-29T17:15:12.862Z,646.88
2018-03-29T17:16:11.528Z,641.25
2018-03-29T17:17:11.449Z,635.63
2018-03-29T17:18:11.535Z,624.38
2018-03-29T17:19:11.570Z,624.38
2018-03-29T17:20:11.649Z,618.75
2018-03-29T17:21:11.702Z,613.13
2018-03-29T17:22:12.062Z,601.88
2018-03-29T17:23:11.819Z,585.00
2018-03-29T17:24:11.901Z,573.75
2018-03-29T17:25:11.938Z,556.88
2018-03-29T17:26:12.008Z,545.63
2018-03-29T17:27:12.129Z,528.75
2018-03-29T17:28:12.206Z,506.25
2018-03-29T17:29:12.372Z,483.75
2018-03-29T17:30:12.400Z,455.63
2018-03-29T17:31:12.285Z,438.75
2018-03-29T17:32:12.315Z,410.63
2018-03-29T17:33:12.389Z,376.88
2018-03-29T17:34:12.577Z,354.38
2018-03-29T17:35:12.484Z,326.25
2018-03-29T17:36:12.560Z,298.13
2018-03-29T17:37:12.630Z,275.63
2018-03-29T17:38:12.663Z,258.75
2018-03-29T17:39:12.834Z,253.13
2018-03-29T17:40:12.888Z,241.88
2018-03-29T17:41:12.853Z,230.63
2018-03-29T17:43:12.961Z,208.13
2018-03-29T17:44:13.006Z,196.88
2018-03-29T17:45:13.198Z,185.63
2018-03-29T17:46:13.122Z,174.38
2018-03-29T17:47:13.189Z,163.13
2018-03-29T17:49:13.277Z,140.63
2018-03-29T17:50:13.427Z,140.63
2018-03-29T17:51:13.386Z,140.63
2018-03-29T17:52:13.448Z,135.00
2018-03-29T17:53:13.482Z,135.00
2018-03-29T17:54:13.551Z,129.38
2018-03-29T17:55:13.587Z,129.38
2018-03-29T17:56:13.674Z,118.13
2018-03-29T17:57:13.710Z,118.13
2018-03-29T17:58:13.750Z,123.75
2018-03-29T17:59:13.827Z,129.38
2018-03-29T18:00:13.901Z,135.00
2018-03-29T18:01:14.029Z,140.63
2018-03-29T18:02:13.984Z,140.63
2018-03-29T18:03:14.042Z,140.63
2018-03-29T18:04:14.085Z,140.63
2018-03-29T18:05:14.145Z,140.63
2018-03-29T18:06:14.186Z,140.63
2018-03-29T18:07:14.224Z,140.63
2018-03-29T18:08:14.291Z,135.00
2018-03-29T18:09:14.349Z,135.00
2018-03-29T18:10:14.393Z,129.38
2018-03-29T18:11:14.558Z,129.38
2018-03-29T18:12:14.609Z,129.38
2018-03-29T18:13:14.575Z,123.75
2018-03-29T18:14:14.612Z,123.75
2018-03-29T18:15:14.669Z,118.13
2018-03-29T18:16:14.707Z,112.50
2018-03-29T18:17:14.772Z,112.50
2018-03-29T18:18:14.969Z,106.88
2018-03-29T18:19:14.878Z,101.25
2018-03-29T18:20:14.906Z,101.25
2018-03-29T18:21:14.968Z,95.63
2018-03-29T18:22:15.023Z,90.00
2018-03-29T18:23:15.184Z,84.38
2018-03-29T18:24:15.135Z,84.38
2018-03-29T18:25:15.194Z,78.75
2018-03-29T18:26:15.252Z,78.75
2018-03-29T18:27:15.280Z,73.13
2018-03-29T18:28:15.323Z,67.50
2018-03-29T18:29:15.472Z,67.50
2018-03-29T18:30:15.539Z,61.88
2018-03-29T18:31:15.479Z,61.88
2018-03-29T18:32:15.546Z,56.25
2018-03-29T18:33:15.591Z,56.25
2018-03-29T18:34:15.663Z,56.25
2018-03-29T18:35:15.724Z,50.63
2018-03-29T18:36:15.856Z,50.63
2018-03-29T18:37:15.804Z,45.00
2018-03-29T18:38:15.852Z,45.00
2018-03-29T18:39:15.893Z,45.00
2018-03-29T18:40:15.966Z,45.00
2018-03-29T18:41:16.031Z,39.38
2018-03-29T18:42:16.152Z,39.38
2018-03-29T18:43:16.115Z,39.38
2018-03-29T18:44:16.153Z,33.75
2018-03-29T18:45:16.215Z,33.75
2018-03-29T18:46:16.275Z,33.75
2018-03-29T18:48:16.677Z,33.75
2018-03-29T18:49:16.395Z,33.75
2018-03-29T18:50:16.438Z,33.75
2018-03-29T18:51:16.502Z,33.75
2018-03-29T18:52:16.551Z,33.75
2018-03-29T18:53:16.625Z,33.75
2018-03-29T18:54:17.011Z,28.13
2018-03-29T18:55:16.693Z,28.13
2018-03-29T18:56:16.772Z,28.13
2018-03-29T18:57:16.825Z,28.13
2018-03-29T18:58:16.859Z,28.13
2018-03-29T18:59:16.938Z,28.13
2018-03-29T19:00:16.983Z,28.13
2018-03-29T19:03:17.348Z,28.13
2018-03-29T19:04:17.178Z,28.13
2018-03-29T19:05:17.316Z,28.13
2018-03-29T19:06:17.362Z,28.13
2018-03-29T19:07:17.321Z,28.13
2018-03-29T19:08:17.369Z,28.13
2018-03-29T19:09:17.439Z,22.50
2018-03-29T19:10:17.468Z,28.13
2018-03-29T19:11:17.502Z,28.13
2018-03-29T19:12:17.666Z,22.50
2018-03-29T19:13:17.631Z,22.50
2018-03-29T19:14:17.667Z,22.50
2018-03-29T19:15:17.966Z,22.50
2018-03-29T19:16:17.779Z,22.50
2018-03-29T19:17:17.813Z,22.50
2018-03-29T19:18:17.992Z,16.88
2018-03-29T19:19:17.939Z,16.88
2018-03-29T19:20:17.984Z,11.25
2018-03-29T19:21:18.071Z,11.25
2018-03-29T19:22:18.072Z,5.63
2018-03-29T19:23:18.277Z,5.63
2018-03-29T19:24:18.256Z,5.63
2018-03-29T19:25:18.215Z,11.25
2018-03-29T19:26:18.259Z,11.25
2018-03-29T19:27:18.339Z,11.25
2018-03-29T19:28:18.388Z,11.25
2018-03-29T19:29:18.433Z,11.25
2018-03-29T19:31:18.540Z,11.25
2018-03-29T19:32:18.586Z,11.25
2018-03-29T19:33:18.612Z,11.25
2018-03-29T19:34:18.673Z,5.63
2018-03-29T19:35:18.827Z,5.63
2018-03-29T19:36:18.894Z,5.63
2018-03-29T19:38:18.858Z,5.63
2018-03-29T19:39:18.914Z,5.63
2018-03-29T19:40:18.987Z,5.63
2018-03-29T19:41:19.033Z,5.63
2018-03-29T19:42:19.162Z,11.25
2018-03-29T19:43:19.130Z,11.25
2018-03-29T19:44:19.385Z,11.25
2018-03-29T19:45:19.241Z,11.25
2018-03-29T19:46:19.267Z,11.25
2018-03-29T19:47:19.319Z,11.25
2018-03-29T19:48:19.498Z,16.88
2018-03-29T19:49:19.415Z,16.88
2018-03-29T19:51:19.713Z,11.25
2018-03-29T19:52:19.575Z,11.25
2018-03-29T19:53:19.622Z,11.25
2018-03-29T19:54:19.761Z,11.25
2018-03-29T19:55:19.702Z,11.25
2018-03-29T19:56:19.762Z,11.25
2018-03-29T19:57:19.849Z,11.25
2018-03-29T19:58:19.864Z,11.25
2018-03-29T19:59:20.032Z,11.25
2018-03-29T20:00:19.977Z,11.25
2018-03-29T20:01:20.032Z,11.25
2018-03-29T20:02:20.080Z,11.25
2018-03-29T20:03:20.110Z,11.25
2018-03-29T20:04:20.245Z,16.88
2018-03-29T20:06:20.286Z,16.88
2018-03-29T20:07:20.316Z,16.88
2018-03-29T20:08:20.339Z,16.88
2018-03-29T20:09:20.495Z,16.88
2018-03-29T20:10:20.474Z,16.88
2018-03-29T20:11:20.507Z,16.88
2018-03-29T20:12:20.547Z,16.88
2018-03-29T20:13:20.781Z,16.88
2018-03-29T20:14:20.638Z,16.88
2018-03-29T20:15:20.809Z,16.88
2018-03-29T20:16:20.838Z,22.50
2018-03-29T20:17:20.785Z,22.50
2018-03-29T20:18:20.845Z,22.50
2018-03-29T20:19:20.867Z,22.50
2018-03-29T20:20:20.939Z,22.50
2018-03-29T20:22:21.044Z,16.88
2018-03-29T20:23:21.058Z,16.88
2018-03-29T20:24:21.129Z,11.25
2018-03-29T20:25:21.210Z,11.25
2018-03-29T20:26:21.312Z,11.25
2018-03-29T20:27:21.263Z,5.63
2018-03-29T20:28:21.314Z,5.63
2018-03-29T20:29:21.367Z,5.63
2018-03-29T20:30:21.408Z,5.63
2018-03-29T20:31:21.575Z,5.63
2018-03-29T20:32:21.506Z,5.63
2018-03-29T20:33:21.552Z,5.63
2018-03-29T20:34:21.624Z,5.63
2018-03-29T20:35:21.636Z,11.25
2018-03-29T20:36:21.794Z,11.25
2018-03-29T20:37:21.739Z,11.25
2018-03-29T20:38:21.791Z,11.25
2018-03-29T20:39:21.857Z,16.88
2018-03-29T20:40:21.881Z,16.88
2018-03-29T20:41:21.927Z,16.88
2018-03-29T20:42:22.098Z,16.88
2018-03-29T20:43:22.131Z,16.88
2018-03-29T20:44:22.307Z,16.88
2018-03-29T20:45:22.142Z,16.88
2018-03-29T20:46:22.200Z,11.25
2018-03-29T20:47:22.224Z,11.25
2018-03-29T20:48:22.275Z,11.25
2018-03-29T20:49:22.341Z,11.25
2018-03-29T20:50:22.369Z,11.25
2018-03-29T20:52:22.460Z,11.25
2018-03-29T20:53:22.533Z,5.63
2018-03-29T20:54:22.677Z,5.63
2018-03-29T20:55:22.732Z,5.63
2018-03-29T20:56:22.705Z,5.63
2018-03-29T20:57:22.698Z,5.63
2018-03-29T20:58:22.741Z,5.63
2018-03-29T20:59:22.826Z,0.00
2018-03-29T21:00:22.944Z,0.00
2018-03-29T21:01:22.924Z,0.00
2018-03-29T21:02:22.949Z,0.00
2018-03-29T21:03:22.977Z,0.00
2018-03-29T21:05:23.109Z,0.00
2018-03-29T21:06:23.222Z,0.00
2018-03-29T21:07:23.210Z,0.00
2018-03-29T21:08:23.251Z,0.00
2018-03-29T21:09:23.274Z,0.00
2018-03-29T21:10:23.334Z,0.00
2018-03-29T21:11:23.483Z,0.00
2018-03-29T21:13:23.504Z,0.00
2018-03-29T21:14:23.522Z,0.00
2018-03-29T21:15:23.572Z,0.00
2018-03-29T21:16:23.637Z,0.00
2018-03-29T21:17:23.652Z,0.00
2018-03-29T21:18:23.832Z,0.00
2018-03-29T21:19:23.743Z,0.00
2018-03-29T21:20:23.816Z,0.00
2018-03-29T21:22:23.911Z,0.00
2018-03-29T21:23:24.108Z,0.00
2018-03-29T21:24:24.025Z,0.00
2018-03-29T21:25:24.037Z,0.00
2018-03-29T21:26:24.093Z,0.00
2018-03-29T21:27:25.347Z,0.00
2018-03-29T21:28:24.290Z,0.00
2018-03-29T21:29:24.231Z,0.00
2018-03-29T21:30:24.265Z,0.00
2018-03-29T21:31:24.346Z,0.00
2018-03-29T21:32:24.394Z,0.00
2018-03-29T21:33:24.444Z,0.00
2018-03-29T21:34:24.585Z,0.00
2018-03-29T21:35:24.532Z,0.00
2018-03-29T21:36:24.583Z,0.00
2018-03-29T21:37:24.631Z,0.00
2018-03-29T21:38:24.668Z,0.00
2018-03-29T21:39:24.823Z,0.00
2018-03-29T21:40:24.775Z,0.00
2018-03-29T21:41:24.809Z,0.00
2018-03-29T21:42:24.932Z,0.00
2018-03-29T21:43:24.918Z,0.00
2018-03-29T21:44:25.178Z,0.00
2018-03-29T21:45:25.114Z,0.00
2018-03-29T21:46:25.155Z,0.00
2018-03-29T21:47:25.155Z,0.00
2018-03-29T21:50:25.229Z,0.00
2018-03-29T21:51:25.287Z,0.00
2018-03-29T21:52:25.393Z,0.00
2018-03-29T21:53:25.398Z,0.00
2018-03-29T21:54:25.436Z,0.00
2018-03-29T21:56:25.527Z,0.00
2018-03-29T21:57:25.610Z,0.00
2018-03-29T21:58:25.626Z,0.00
2018-03-29T22:00:25.716Z,0.00
2018-03-29T22:01:25.852Z,0.00
2018-03-29T22:02:25.926Z,0.00
2018-03-29T22:03:25.861Z,0.00
2018-03-29T22:04:25.921Z,0.00
2018-03-29T22:05:25.952Z,0.00
2018-03-29T22:06:25.994Z,0.00
2018-03-29T22:07:26.038Z,0.00
2018-03-29T22:08:26.187Z,0.00
2018-03-29T22:09:26.138Z,0.00
2018-03-29T22:10:26.204Z,0.00
2018-03-29T22:11:26.235Z,0.00
2018-03-29T22:12:26.272Z,0.00
2018-03-29T22:13:26.423Z,0.00
2018-03-29T22:14:26.388Z,0.00
2018-03-29T22:15:26.428Z,0.00
2018-03-29T22:16:26.455Z,0.00
2018-03-29T22:17:26.505Z,0.00
2018-03-29T22:18:26.593Z,0.00
2018-03-29T22:19:26.728Z,0.00
2018-03-29T22:20:26.698Z,0.00
2018-03-29T22:21:26.726Z,0.00
2018-03-29T22:22:26.753Z,0.00
2018-03-29T22:23:26.850Z,0.00
2018-03-29T22:24:26.861Z,0.00
2018-03-29T22:25:27.000Z,0.00
2018-03-29T22:26:26.975Z,0.00
2018-03-29T22:27:26.978Z,0.00
2018-03-29T22:28:27.039Z,0.00
2018-03-29T22:29:27.145Z,0.00
2018-03-29T22:30:27.144Z,0.00
2018-03-29T22:31:27.282Z,0.00
2018-03-29T22:32:27.244Z,0.00
2018-03-29T22:33:27.290Z,0.00
2018-03-29T22:34:27.350Z,0.00
2018-03-29T22:35:27.379Z,0.00
2018-03-29T22:36:27.420Z,0.00
2018-03-29T22:37:27.557Z,0.00
2018-03-29T22:38:27.516Z,0.00
2018-03-29T22:39:27.569Z,0.00
2018-03-29T22:40:27.823Z,0.00
2018-03-29T22:41:27.672Z,0.00
2018-03-29T22:42:27.917Z,0.00
2018-03-29T22:43:27.751Z,0.00
2018-03-29T22:45:27.862Z,0.00
2018-03-29T22:46:27.911Z,0.00
2018-03-29T22:47:27.950Z,0.00
2018-03-29T22:48:28.003Z,0.00
2018-03-29T22:49:28.136Z,0.00
2018-03-29T22:50:28.100Z,0.00
2018-03-29T22:51:28.177Z,0.00
2018-03-29T22:52:28.449Z,0.00
2018-03-29T22:53:28.222Z,0.00
2018-03-29T22:54:28.274Z,0.00
2018-03-29T22:55:29.556Z,0.00
2018-03-29T22:56:28.380Z,0.00
2018-03-29T22:57:28.434Z,0.00
2018-03-29T22:58:28.475Z,0.00
2018-03-29T22:59:28.624Z,0.00
2018-03-29T23:00:28.797Z,0.00
2018-03-29T23:01:28.637Z,0.00
2018-03-29T23:02:28.687Z,0.00
2018-03-29T23:03:28.741Z,0.00
2018-03-29T23:04:30.245Z,0.00
2018-03-29T23:05:28.936Z,0.00
2018-03-29T23:06:28.866Z,0.00
2018-03-29T23:07:28.892Z,0.00
2018-03-29T23:08:29.137Z,0.00
2018-03-29T23:09:29.001Z,0.00
2018-03-29T23:10:29.042Z,0.00
2018-03-29T23:11:29.085Z,0.00
2018-03-29T23:12:29.133Z,0.00
2018-03-29T23:13:29.207Z,0.00
2018-03-29T23:14:29.227Z,0.00
2018-03-29T23:15:29.292Z,0.00
2018-03-29T23:16:29.429Z,0.00
2018-03-29T23:17:29.484Z,0.00
2018-03-29T23:18:29.426Z,0.00
2018-03-29T23:19:29.487Z,0.00
2018-03-29T23:20:29.521Z,0.00
2018-03-29T23:21:29.592Z,0.00
2018-03-29T23:22:29.622Z,0.00
2018-03-29T23:23:29.705Z,0.00
2018-03-29T23:24:29.724Z,0.00
2018-03-29T23:25:29.787Z,0.00
2018-03-29T23:26:30.016Z,0.00
2018-03-29T23:27:29.842Z,0.00
2018-03-29T23:28:30.013Z,0.00
2018-03-29T23:29:30.083Z,0.00
2018-03-29T23:31:30.046Z,0.00
2018-03-29T23:32:30.111Z,0.00
2018-03-29T23:33:30.129Z,0.00
2018-03-29T23:34:30.220Z,0.00
2018-03-29T23:35:30.221Z,0.00
2018-03-29T23:36:30.289Z,0.00
2018-03-29T23:37:30.335Z,0.00
2018-03-29T23:38:30.380Z,0.00
2018-03-29T23:39:30.559Z,0.00
2018-03-29T23:40:30.490Z,0.00
2018-03-29T23:41:30.725Z,0.00
2018-03-29T23:42:30.596Z,0.00
2018-03-29T23:43:30.618Z,0.00
2018-03-29T23:44:30.799Z,0.00
2018-03-29T23:45:30.712Z,0.00
2018-03-29T23:46:30.750Z,0.00
2018-03-29T23:47:30.803Z,0.00
2018-03-29T23:48:30.854Z,0.00
2018-03-29T23:49:30.913Z,0.00
2018-03-29T23:50:30.959Z,0.00
2018-03-29T23:51:31.013Z,0.00
2018-03-29T23:52:31.080Z,0.00
2018-03-29T23:53:31.111Z,0.00
2018-03-29T23:54:31.266Z,0.00
2018-03-29T23:55:31.274Z,0.00
2018-03-29T23:56:31.435Z,0.00
2018-03-29T23:57:31.511Z,0.00
2018-03-29T23:58:31.349Z,0.00
2018-03-29T23:59:31.389Z,0.00
